Time;durP1;ratioP1;P1;durP2;ratioP2;P2;SDS_P1;SDS_P2;PMS_P1;PMS_P2;Temp;Humidity;BMP_temperature;BMP_pressure;BME280_temperature;BME280_humidity;BME280_pressure;Samples;Min_cycle;Max_cycle;Signal;HPM_P1;HPM_P2
2021/03/24 00:01:19;;;;;;;83.22;52.08;;;6.70;99.90;;;;;;5067710;28;20024;-45
2021/03/24 00:03:46;;;;;;;98.90;55.92;;;6.70;99.90;;;;;;5067805;28;20492;-46
2021/03/24 00:06:12;;;;;;;104.85;57.45;;;6.70;99.90;;;;;;5065912;28;20025;-47
2021/03/24 00:08:38;;;;;;;96.80;54.65;;;6.70;99.90;;;;;;5070975;28;20035;-47
2021/03/24 00:11:05;;;;;;;103.47;57.17;;;6.70;99.90;;;;;;5071227;28;20500;-47
2021/03/24 00:13:31;;;;;;;97.22;54.10;;;6.70;99.90;;;;;;5071211;28;20021;-48
2021/03/24 00:15:56;;;;;;;104.18;56.65;;;6.70;99.90;;;;;;5070492;28;20031;-45
2021/03/24 00:18:22;;;;;;;104.78;56.78;;;6.70;99.90;;;;;;5071102;28;20021;-46
2021/03/24 00:20:49;;;;;;;100.28;57.63;;;6.70;99.90;;;;;;5071200;28;20027;-46
2021/03/24 00:23:14;;;;;;;102.22;56.70;;;6.70;99.90;;;;;;5071129;28;20060;-46
2021/03/24 00:25:40;;;;;;;104.63;55.08;;;6.70;99.90;;;;;;5070516;28;20064;-48
2021/03/24 00:28:07;;;;;;;103.78;56.25;;;6.80;99.90;;;;;;5070957;28;20643;-46
2021/03/24 00:30:37;;;;;;;100.85;53.65;;;6.80;99.90;;;;;;5070645;28;20033;-46
2021/03/24 00:33:04;;;;;;;112.45;55.95;;;6.80;99.90;;;;;;5070839;28;20024;-48
2021/03/24 00:35:30;;;;;;;103.10;54.78;;;6.80;99.90;;;;;;5070279;28;20059;-47
2021/03/24 00:37:56;;;;;;;109.22;58.08;;;6.80;99.90;;;;;;5070657;28;20481;-46
2021/03/24 00:40:28;;;;;;;110.75;59.00;;;6.80;99.90;;;;;;5069402;28;20107;-46
2021/03/24 00:42:53;;;;;;;108.07;57.35;;;6.80;99.90;;;;;;5071080;28;20033;-46
2021/03/24 00:45:19;;;;;;;108.75;58.03;;;6.80;99.90;;;;;;5070246;28;20372;-46
2021/03/24 00:47:44;;;;;;;110.05;59.40;;;6.80;99.90;;;;;;5070600;28;20052;-45
2021/03/24 00:50:14;;;;;;;117.90;59.78;;;6.80;99.90;;;;;;5070571;28;20028;-45
2021/03/24 00:52:40;;;;;;;115.07;58.90;;;6.80;99.90;;;;;;5070434;28;20167;-45
2021/03/24 00:55:06;;;;;;;113.15;58.95;;;6.80;99.90;;;;;;5069880;28;20099;-47
2021/03/24 00:57:31;;;;;;;111.57;56.88;;;6.80;99.90;;;;;;5070452;28;20024;-46
2021/03/24 00:59:57;;;;;;;111.53;56.55;;;6.80;99.90;;;;;;5070064;28;20035;-46
2021/03/24 01:02:24;;;;;;;116.70;60.55;;;6.80;99.90;;;;;;5070272;28;20025;-45
2021/03/24 01:04:49;;;;;;;110.40;57.45;;;6.80;99.90;;;;;;5069894;28;20047;-45
2021/03/24 01:07:16;;;;;;;110.60;56.17;;;6.80;99.90;;;;;;5070234;28;20032;-46
2021/03/24 01:09:41;;;;;;;120.72;58.90;;;6.80;99.90;;;;;;5070235;28;20478;-46
2021/03/24 01:12:07;;;;;;;107.18;58.83;;;6.80;99.90;;;;;;5069910;28;20043;-45
2021/03/24 01:14:33;;;;;;;105.50;54.03;;;6.80;99.90;;;;;;5069914;28;20031;-46
2021/03/24 01:16:58;;;;;;;116.30;59.60;;;6.80;99.90;;;;;;5069293;28;20033;-45
2021/03/24 01:19:24;;;;;;;118.63;58.85;;;6.80;99.90;;;;;;5069601;28;20239;-45
2021/03/24 01:21:50;;;;;;;114.10;57.88;;;6.80;99.90;;;;;;5069926;28;20477;-45
2021/03/24 01:24:15;;;;;;;116.82;60.55;;;6.80;99.90;;;;;;5069990;28;20067;-45
2021/03/24 01:26:41;;;;;;;116.78;59.33;;;6.80;99.90;;;;;;5069432;28;20036;-45
2021/03/24 01:29:06;;;;;;;109.30;55.20;;;6.80;99.90;;;;;;5069857;28;20130;-45
2021/03/24 01:31:32;;;;;;;111.70;56.17;;;6.80;99.90;;;;;;5069702;28;20070;-46
2021/03/24 01:33:59;;;;;;;110.85;56.35;;;6.80;99.90;;;;;;5068363;28;20024;-45
2021/03/24 01:36:27;;;;;;;116.72;57.92;;;6.80;99.90;;;;;;5069125;28;20421;-45
2021/03/24 01:38:53;;;;;;;109.90;55.67;;;6.70;99.90;;;;;;5069669;28;20029;-45
2021/03/24 01:41:21;;;;;;;116.82;57.67;;;6.80;99.90;;;;;;5069799;28;20017;-45
2021/03/24 01:43:47;;;;;;;113.32;56.08;;;6.70;99.90;;;;;;5069688;28;20016;-47
2021/03/24 01:46:24;;;;;;;117.18;56.97;;;6.80;99.90;;;;;;5068965;28;20032;-48
2021/03/24 01:49:00;;;;;;;117.03;58.55;;;6.70;99.90;;;;;;5069453;28;20095;-47
2021/03/24 01:51:29;;;;;;;115.80;56.05;;;6.70;99.90;;;;;;5069401;28;20024;-46
2021/03/24 01:53:56;;;;;;;120.38;61.22;;;6.70;99.90;;;;;;5067803;28;20379;-45
2021/03/24 01:56:23;;;;;;;113.78;58.70;;;6.80;99.90;;;;;;5068600;28;20052;-47
2021/03/24 01:58:48;;;;;;;120.38;58.45;;;6.70;99.90;;;;;;5069192;28;20020;-46
2021/03/24 02:01:18;;;;;;;112.60;56.28;;;6.80;99.90;;;;;;5069154;28;20024;-45
2021/03/24 02:03:45;;;;;;;118.47;58.78;;;6.80;99.90;;;;;;5069076;28;20067;-46
2021/03/24 02:06:20;;;;;;;120.55;59.53;;;6.80;99.90;;;;;;5068549;28;20028;-48
2021/03/24 02:08:54;;;;;;;114.95;57.75;;;6.80;99.90;;;;;;5069067;28;20059;-45
2021/03/24 02:11:55;;;;;;;120.90;58.70;;;6.80;99.90;;;;;;5069126;28;20047;-46
2021/03/24 02:14:30;;;;;;;114.75;56.30;;;6.80;99.90;;;;;;5060964;28;20047;-45
2021/03/24 02:16:57;;;;;;;121.57;58.42;;;6.80;99.90;;;;;;5066861;28;20020;-45
2021/03/24 02:19:44;;;;;;;124.55;59.33;;;6.80;99.90;;;;;;5068797;28;20447;-46
2021/03/24 02:22:11;;;;;;;126.55;60.50;;;6.80;99.90;;;;;;5068693;28;20433;-45
2021/03/24 02:25:03;;;;;;;115.32;55.95;;;6.80;99.90;;;;;;5068761;28;20528;-45
2021/03/24 02:27:32;;;;;;;116.03;57.58;;;6.80;99.90;;;;;;5067283;28;20485;-45
2021/03/24 02:30:05;;;;;;;119.60;57.72;;;6.80;99.90;;;;;;5066568;28;20144;-45
2021/03/24 02:32:36;;;;;;;118.45;57.15;;;6.80;99.90;;;;;;5068931;28;20039;-45
2021/03/24 02:35:07;;;;;;;115.72;57.90;;;6.80;99.90;;;;;;5068178;28;20019;-45
2021/03/24 02:37:34;;;;;;;118.43;56.45;;;6.80;99.90;;;;;;5068675;28;20047;-47
2021/03/24 02:40:01;;;;;;;117.43;59.13;;;6.90;99.90;;;;;;5068612;28;20048;-45
2021/03/24 02:42:27;;;;;;;120.57;58.40;;;6.80;99.90;;;;;;5069166;28;20111;-45
2021/03/24 02:44:53;;;;;;;108.78;54.08;;;6.90;99.90;;;;;;5066828;28;20112;-48
2021/03/24 02:47:21;;;;;;;116.50;55.63;;;6.90;99.90;;;;;;5068250;28;20063;-47
2021/03/24 02:49:48;;;;;;;103.50;51.35;;;6.90;99.90;;;;;;5068605;28;20402;-45
2021/03/24 02:52:14;;;;;;;107.70;54.33;;;6.90;99.90;;;;;;5068343;28;20086;-47
2021/03/24 02:54:42;;;;;;;112.93;54.85;;;6.90;99.90;;;;;;5067004;28;20498;-47
2021/03/24 02:57:08;;;;;;;119.53;57.25;;;6.90;99.90;;;;;;5067904;28;20024;-45
2021/03/24 02:59:33;;;;;;;115.43;56.63;;;7.00;99.90;;;;;;5068515;28;20050;-46
2021/03/24 03:02:09;;;;;;;120.57;56.90;;;7.00;99.90;;;;;;5068077;28;20032;-47
2021/03/24 03:04:39;;;;;;;122.32;57.28;;;7.00;99.90;;;;;;5068178;28;20029;-47
2021/03/24 03:07:14;;;;;;;118.63;56.53;;;7.00;99.90;;;;;;5067336;28;20029;-45
2021/03/24 03:09:48;;;;;;;120.00;59.00;;;7.00;99.90;;;;;;5068354;28;20025;-46
2021/03/24 03:12:43;;;;;;;110.88;56.03;;;6.90;99.90;;;;;;5068370;28;20079;-45
2021/03/24 03:15:21;;;;;;;112.00;56.83;;;6.90;99.90;;;;;;5067682;28;20060;-48
2021/03/24 03:18:04;;;;;;;121.43;57.60;;;6.90;99.90;;;;;;5068457;28;20024;-45
2021/03/24 03:20:38;;;;;;;125.03;59.65;;;6.90;99.90;;;;;;5068500;28;20575;-45
2021/03/24 03:23:15;;;;;;;118.70;61.40;;;6.90;99.90;;;;;;5068607;28;20081;-45
2021/03/24 03:25:45;;;;;;;112.05;58.72;;;6.90;99.90;;;;;;5067210;28;20031;-46
2021/03/24 03:28:15;;;;;;;121.65;61.85;;;7.00;99.90;;;;;;5067866;28;20031;-45
2021/03/24 03:30:45;;;;;;;111.80;57.75;;;7.00;99.90;;;;;;5067379;28;20033;-45
2021/03/24 03:33:12;;;;;;;119.43;60.05;;;7.00;99.90;;;;;;5064833;28;20032;-46
2021/03/24 03:35:40;;;;;;;112.55;59.83;;;6.90;99.90;;;;;;5066888;28;20029;-47
2021/03/24 03:38:16;;;;;;;108.78;56.33;;;7.00;99.90;;;;;;5067160;28;20058;-45
2021/03/24 03:40:44;;;;;;;113.22;59.38;;;7.00;99.90;;;;;;5065225;28;20036;-45
2021/03/24 03:43:14;;;;;;;113.72;57.53;;;7.00;99.90;;;;;;5071530;28;20444;-45
2021/03/24 03:45:42;;;;;;;122.43;60.20;;;7.00;99.90;;;;;;5070852;28;20025;-46
2021/03/24 03:48:09;;;;;;;115.57;61.10;;;7.00;99.90;;;;;;5071365;28;20033;-45
2021/03/24 03:50:36;;;;;;;109.07;58.30;;;7.00;99.90;;;;;;5071122;28;20016;-46
2021/03/24 03:53:48;;;;;;;116.00;61.20;;;7.00;99.90;;;;;;5071206;28;20552;-46
2021/03/24 03:56:19;;;;;;;114.63;60.00;;;7.00;99.90;;;;;;5053659;28;20036;-49
2021/03/24 03:58:51;;;;;;;;;;;6.90;99.90;;;;;;5067729;28;20021;-47
2021/03/24 04:01:33;;;;;;;120.80;59.47;;;6.90;99.90;;;;;;5070806;28;19987;-46
2021/03/24 04:04:15;;;;;;;119.15;61.08;;;6.90;99.90;;;;;;5070143;28;20082;-47
2021/03/24 04:07:01;;;;;;;118.25;62.47;;;6.90;99.90;;;;;;5070489;28;20051;-46
2021/03/24 04:09:27;;;;;;;120.93;62.28;;;6.90;99.90;;;;;;5068876;28;20017;-46
2021/03/24 04:11:54;;;;;;;109.60;59.63;;;6.90;99.90;;;;;;5070957;28;20028;-47
2021/03/24 04:14:28;;;;;;;116.65;62.90;;;6.90;99.90;;;;;;5070796;28;20052;-46
2021/03/24 04:16:55;;;;;;;109.65;58.67;;;6.90;99.90;;;;;;5069805;28;20492;-48
2021/03/24 04:19:29;;;;;;;112.53;61.17;;;6.90;99.90;;;;;;5069730;28;20473;-47
2021/03/24 04:22:04;;;;;;;108.75;61.03;;;6.90;99.90;;;;;;5071269;28;20108;-46
2021/03/24 04:24:38;;;;;;;113.07;60.50;;;6.90;99.90;;;;;;5071626;28;20190;-46
2021/03/24 04:27:07;;;;;;;122.65;61.67;;;6.80;99.90;;;;;;5070660;28;20469;-48
2021/03/24 04:29:34;;;;;;;113.10;62.28;;;6.90;99.90;;;;;;5071008;28;20496;-48
2021/03/24 04:32:03;;;;;;;110.10;61.13;;;6.90;99.90;;;;;;5070602;28;20414;-48
2021/03/24 04:34:29;;;;;;;119.65;61.78;;;6.80;99.90;;;;;;5069386;28;20112;-45
2021/03/24 04:37:28;;;;;;;113.60;62.55;;;6.80;99.90;;;;;;5068565;28;20445;-48
2021/03/24 04:40:00;;;;;;;111.10;61.42;;;6.80;99.90;;;;;;5070922;28;20023;-45
2021/03/24 04:42:38;;;;;;;116.68;61.63;;;6.80;99.90;;;;;;5060660;28;20598;-48
2021/03/24 04:45:29;;;;;;;106.70;60.33;;;6.80;99.90;;;;;;5050174;28;20079;-48
2021/03/24 04:47:57;;;;;;;102.20;58.13;;;6.80;99.90;;;;;;5050411;28;20077;-47
2021/03/24 04:50:48;;;;;;;114.00;61.88;;;6.70;99.90;;;;;;5049299;28;20035;-46
2021/03/24 04:53:16;;;;;;;113.53;62.03;;;6.70;99.90;;;;;;5049552;28;20072;-46
2021/03/24 04:55:43;;;;;;;107.70;61.55;;;6.70;99.90;;;;;;5050116;28;20109;-45
2021/03/24 04:58:23;;;;;;;112.32;59.25;;;6.70;99.90;;;;;;5049099;28;20113;-46
2021/03/24 05:00:53;;;;;;;112.47;59.20;;;6.70;99.90;;;;;;5050310;28;20032;-47
2021/03/24 05:03:22;;;;;;;;;;;6.70;99.90;;;;;;5051009;28;20259;-47
2021/03/24 05:05:55;;;;;;;114.18;59.25;;;6.70;99.90;;;;;;5049931;28;20115;-47
2021/03/24 05:08:36;;;;;;;118.63;61.42;;;6.70;99.90;;;;;;5050630;28;20033;-50
2021/03/24 05:11:10;;;;;;;116.45;58.53;;;6.60;99.90;;;;;;5050464;28;20032;-46
2021/03/24 05:13:42;;;;;;;116.43;60.88;;;6.70;99.90;;;;;;5050188;28;20021;-46
2021/03/24 05:16:25;;;;;;;111.80;59.28;;;6.70;99.90;;;;;;5049389;28;20063;-45
2021/03/24 05:18:53;;;;;;;107.13;57.50;;;6.70;99.90;;;;;;5050349;28;20025;-45
2021/03/24 05:21:46;;;;;;;111.03;60.25;;;6.60;99.90;;;;;;5059812;28;20104;-46
2021/03/24 05:24:18;;;;;;;112.18;58.85;;;6.60;99.90;;;;;;5069373;28;20024;-49
2021/03/24 05:26:52;;;;;;;109.65;58.85;;;6.60;99.90;;;;;;5066681;28;20025;-46
2021/03/24 05:29:24;;;;;;;110.70;59.58;;;6.70;99.90;;;;;;5068262;28;20028;-45
2021/03/24 05:31:53;;;;;;;110.07;58.85;;;6.70;99.90;;;;;;5066539;28;20111;-43
2021/03/24 05:34:27;;;;;;;104.03;56.53;;;6.60;99.90;;;;;;5069457;28;20044;-46
2021/03/24 05:36:53;;;;;;;107.10;58.90;;;6.60;99.90;;;;;;5067551;28;20020;-46
2021/03/24 05:39:36;;;;;;;102.57;55.58;;;6.70;99.90;;;;;;5069738;28;20235;-46
2021/03/24 05:42:23;;;;;;;117.47;60.63;;;6.60;99.90;;;;;;5066489;28;20474;-45
2021/03/24 05:44:58;;;;;;;111.82;58.47;;;6.70;99.90;;;;;;5069038;28;20036;-46
2021/03/24 05:47:42;;;;;;;107.18;57.03;;;6.70;99.90;;;;;;5068102;28;20332;-46
2021/03/24 05:50:29;;;;;;;117.18;58.67;;;6.70;99.90;;;;;;5066901;28;20100;-46
2021/03/24 05:53:22;;;;;;;105.15;56.53;;;6.70;99.90;;;;;;5064906;28;20028;-46
2021/03/24 05:56:18;;;;;;;109.60;58.22;;;6.70;99.90;;;;;;5066260;28;20042;-47
2021/03/24 05:59:05;;;;;;;109.97;56.80;;;6.70;99.90;;;;;;5066591;28;20025;-48
2021/03/24 06:01:33;;;;;;;103.65;56.30;;;6.80;99.90;;;;;;5067122;28;20024;-46
2021/03/24 06:04:11;;;;;;;112.88;60.38;;;6.80;99.90;;;;;;5069575;28;20035;-48
2021/03/24 06:07:08;;;;;;;107.80;56.53;;;6.80;99.90;;;;;;5069042;28;20035;-46
2021/03/24 06:09:50;;;;;;;106.35;57.92;;;6.80;99.90;;;;;;5072462;28;20032;-46
2021/03/24 06:12:34;;;;;;;106.53;56.67;;;6.80;99.90;;;;;;5072509;28;20016;-48
2021/03/24 06:15:37;;;;;;;108.47;56.70;;;6.90;99.90;;;;;;5078819;28;20017;-47
2021/03/24 06:18:36;;;;;;;103.95;53.50;;;6.90;99.90;;;;;;5070400;28;20552;-47
2021/03/24 06:21:19;;;;;;;103.53;55.40;;;7.00;99.90;;;;;;5070675;28;20501;-47
2021/03/24 06:23:58;;;;;;;94.45;53.33;;;7.00;99.90;;;;;;5070430;28;20024;-47
2021/03/24 06:26:47;;;;;;;96.88;52.35;;;7.10;99.90;;;;;;5070002;28;20385;-47
2021/03/24 06:29:30;;;;;;;99.88;54.38;;;7.10;99.90;;;;;;5070444;28;20103;-46
2021/03/24 06:32:09;;;;;;;109.30;55.03;;;7.10;99.90;;;;;;5072340;28;20063;-46
2021/03/24 06:35:13;;;;;;;94.38;52.53;;;7.10;99.90;;;;;;5073356;28;20616;-46
2021/03/24 06:38:08;;;;;;;95.65;52.97;;;7.10;99.90;;;;;;5066662;28;20397;-46
2021/03/24 06:40:57;;;;;;;92.22;48.22;;;7.20;99.90;;;;;;5072921;28;20020;-46
2021/03/24 06:43:59;;;;;;;89.85;49.65;;;7.10;99.90;;;;;;5074034;28;20020;-48
2021/03/24 06:46:44;;;;;;;97.07;52.47;;;7.20;99.90;;;;;;5051279;28;20478;-46
2021/03/24 06:49:23;;;;;;;96.53;53.42;;;7.30;99.90;;;;;;5074408;28;20609;-46
2021/03/24 06:52:16;;;;;;;100.15;53.33;;;7.20;99.90;;;;;;5080492;28;20021;-46
2021/03/24 06:55:18;;;;;;;99.38;51.60;;;7.30;99.90;;;;;;5082546;28;20070;-46
2021/03/24 06:57:56;;;;;;;91.32;50.78;;;7.30;99.90;;;;;;5081034;28;20028;-46
2021/03/24 07:00:40;;;;;;;94.57;51.53;;;7.30;99.90;;;;;;5084123;28;20028;-47
2021/03/24 07:03:57;;;;;;;93.28;50.67;;;7.40;99.90;;;;;;5056982;28;20024;-47
2021/03/24 07:06:48;;;;;;;95.75;51.65;;;7.50;99.90;;;;;;5077547;28;20032;-47
2021/03/24 07:09:46;;;;;;;91.82;48.20;;;7.60;99.90;;;;;;5067988;28;20032;-46
2021/03/24 07:12:36;;;;;;;94.95;49.78;;;7.60;99.90;;;;;;5072844;28;20037;-46
2021/03/24 07:15:32;;;;;;;88.18;49.63;;;7.70;99.90;;;;;;5089536;28;20524;-47
2021/03/24 07:18:20;;;;;;;94.57;51.38;;;7.70;99.90;;;;;;5094042;28;20115;-47
2021/03/24 07:21:01;;;;;;;101.53;49.10;;;7.70;99.90;;;;;;5094432;28;20020;-46
2021/03/24 07:23:46;;;;;;;;;;;7.90;99.90;;;;;;5094625;28;20702;-47
2021/03/24 07:26:35;;;;;;;93.95;49.90;;;7.90;99.90;;;;;;5092070;28;19955;-47
2021/03/24 07:29:25;;;;;;;99.03;49.20;;;8.10;99.90;;;;;;5073481;28;20029;-46
2021/03/24 07:32:25;;;;;;;90.38;47.55;;;8.20;99.90;;;;;;5087107;28;20062;-48
2021/03/24 07:34:57;;;;;;;103.68;52.30;;;8.30;99.90;;;;;;5053017;28;20029;-45
2021/03/24 07:37:55;;;;;;;85.85;48.05;;;8.30;99.90;;;;;;5053647;28;20017;-46
2021/03/24 07:40:39;;;;;;;85.50;48.15;;;8.40;99.90;;;;;;5064194;28;20021;-45
2021/03/24 07:43:42;;;;;;;93.13;48.22;;;8.60;99.90;;;;;;5070471;28;20036;-45
2021/03/24 07:46:16;;;;;;;78.65;47.30;;;8.60;99.90;;;;;;5071051;28;20032;-45
2021/03/24 07:49:05;;;;;;;96.20;48.78;;;8.80;99.90;;;;;;5071818;28;20028;-45
2021/03/24 07:51:54;;;;;;;84.32;46.55;;;8.90;99.90;;;;;;5071764;28;20021;-46
2021/03/24 07:54:33;;;;;;;84.03;47.10;;;9.00;99.90;;;;;;5071602;28;20028;-45
2021/03/24 07:57:21;;;;;;;87.78;47.45;;;9.10;99.90;;;;;;5068680;28;20159;-45
2021/03/24 08:00:19;;;;;;;82.07;45.97;;;9.20;99.90;;;;;;5070270;28;20055;-45
2021/03/24 08:03:05;;;;;;;86.75;48.15;;;9.30;99.90;;;;;;5071184;28;20025;-45
2021/03/24 08:05:58;;;;;;;75.25;46.55;;;9.40;99.90;;;;;;5070507;28;20077;-47
2021/03/24 08:08:53;;;;;;;86.72;46.40;;;9.60;99.90;;;;;;5071368;28;20033;-45
2021/03/24 08:11:53;;;;;;;80.90;47.33;;;9.70;99.90;;;;;;5071216;28;20028;-46
2021/03/24 08:14:26;;;;;;;81.53;46.45;;;9.80;99.90;;;;;;5065375;28;20063;-48
2021/03/24 08:17:00;;;;;;;84.85;47.03;;;9.90;99.90;;;;;;5066201;28;20662;-46
2021/03/24 08:19:46;;;;;;;90.40;48.63;;;9.90;99.90;;;;;;5052509;28;20033;-48
2021/03/24 08:22:50;;;;;;;76.95;45.60;;;10.10;99.90;;;;;;5052531;28;20739;-48
2021/03/24 08:25:42;;;;;;;79.03;43.60;;;10.40;99.90;;;;;;5052132;28;20029;-48
2021/03/24 08:28:26;;;;;;;66.88;43.30;;;10.90;99.90;;;;;;5050970;28;20025;-48
2021/03/24 08:31:25;;;;;;;70.90;44.00;;;11.80;99.90;;;;;;5052177;28;20037;-48
2021/03/24 08:34:11;;;;;;;62.45;41.05;;;12.80;97.10;;;;;;5052246;28;20032;-46
2021/03/24 08:36:51;;;;;;;60.33;41.22;;;13.80;91.40;;;;;;5050465;28;20029;-48
2021/03/24 08:39:45;;;;;;;55.55;38.53;;;15.30;80.80;;;;;;5052551;28;20045;-46
2021/03/24 08:42:10;;;;;;;59.45;40.13;;;15.80;72.30;;;;;;5062448;28;20024;-47
2021/03/24 08:44:59;;;;;;;59.08;41.22;;;16.70;68.50;;;;;;5051783;28;20039;-48
2021/03/24 08:47:33;;;;;;;58.10;41.63;;;17.60;62.60;;;;;;5064202;28;20186;-46
2021/03/24 08:49:59;;;;;;;63.60;42.80;;;18.20;60.80;;;;;;5070428;28;20232;-46
2021/03/24 08:53:03;;;;;;;50.05;37.75;;;18.00;58.30;;;;;;5071008;28;20026;-47
2021/03/24 08:55:44;;;;;;;48.03;33.95;;;18.40;59.30;;;;;;5071052;28;20042;-46
2021/03/24 08:58:32;;;;;;;51.80;40.13;;;19.20;56.50;;;;;;5069978;28;20020;-47
2021/03/24 09:01:45;;;;;;;52.10;39.13;;;19.60;53.90;;;;;;5067819;28;20397;-47
2021/03/24 09:04:51;;;;;;;52.80;39.25;;;19.90;53.60;;;;;;5044543;28;20047;-47
2021/03/24 09:07:36;;;;;;;54.55;39.13;;;20.30;53.00;;;;;;5068245;28;20020;-48
2021/03/24 09:10:19;;;;;;;52.03;39.47;;;20.30;51.60;;;;;;5063848;28;20078;-47
2021/03/24 09:12:54;;;;;;;55.05;39.97;;;20.80;50.70;;;;;;5055547;28;20269;-46
2021/03/24 09:15:36;;;;;;;54.00;41.53;;;20.80;50.20;;;;;;5047202;28;20048;-48
2021/03/24 09:18:08;;;;;;;54.22;39.65;;;20.40;49.20;;;;;;5057798;28;20453;-49
2021/03/24 09:20:54;;;;;;;54.33;39.88;;;20.60;49.70;;;;;;5062959;28;20371;-48
2021/03/24 09:23:52;;;;;;;50.80;38.08;;;20.30;49.80;;;;;;5067984;28;20436;-46
2021/03/24 09:26:51;;;;;;;59.63;42.22;;;19.70;52.70;;;;;;5065192;28;20025;-48
2021/03/24 09:29:34;;;;;;;63.72;45.38;;;19.00;51.60;;;;;;5067099;28;20044;-46
2021/03/24 09:32:08;;;;;;;64.35;43.17;;;17.90;54.90;;;;;;5067221;28;20056;-47
2021/03/24 09:35:04;;;;;;;60.38;41.17;;;17.30;56.20;;;;;;5067831;28;20024;-48
2021/03/24 09:37:35;;;;;;;70.10;44.58;;;16.70;60.30;;;;;;5066714;28;20027;-47
2021/03/24 09:40:07;;;;;;;66.80;45.38;;;16.50;61.80;;;;;;5065728;28;20040;-46
2021/03/24 09:42:39;;;;;;;57.42;39.45;;;16.70;59.60;;;;;;5067157;28;20017;-45
2021/03/24 09:45:13;;;;;;;59.03;42.97;;;17.30;60.50;;;;;;5068050;28;21196;-47
2021/03/24 09:47:58;;;;;;;60.05;41.50;;;17.70;57.00;;;;;;5068730;28;20029;-48
2021/03/24 09:50:41;;;;;;;69.75;46.65;;;17.20;57.80;;;;;;5068485;28;20712;-46
2021/03/24 09:53:16;;;;;;;68.10;44.40;;;16.50;58.00;;;;;;5067369;28;20068;-46
2021/03/24 09:55:46;;;;;;;69.15;46.63;;;16.70;59.10;;;;;;5062195;28;20018;-46
2021/03/24 09:58:30;;;;;;;64.82;41.92;;;16.70;58.60;;;;;;5068329;28;20093;-49
2021/03/24 10:01:04;;;;;;;63.63;43.90;;;16.80;59.50;;;;;;5067031;28;20035;-46
2021/03/24 10:03:57;;;;;;;57.10;40.28;;;16.60;60.00;;;;;;5068078;28;20393;-48
2021/03/24 10:06:39;;;;;;;59.28;40.10;;;16.60;60.80;;;;;;5068919;28;20020;-47
2021/03/24 10:09:16;;;;;;;60.78;40.90;;;16.50;60.20;;;;;;5069119;28;20043;-47
2021/03/24 10:11:48;;;;;;;64.68;41.72;;;16.50;62.30;;;;;;5065946;28;20052;-46
2021/03/24 10:14:24;;;;;;;63.97;42.40;;;16.60;61.10;;;;;;5065743;28;20170;-46
2021/03/24 10:17:01;;;;;;;67.28;44.45;;;16.40;62.30;;;;;;5067405;28;20066;-45
2021/03/24 10:19:40;;;;;;;64.00;41.90;;;16.50;60.50;;;;;;5070476;28;20020;-46
2021/03/24 10:22:32;;;;;;;61.33;42.00;;;16.30;61.00;;;;;;5066612;28;20067;-46
2021/03/24 10:25:34;;;;;;;70.75;44.55;;;15.80;62.60;;;;;;5048827;28;20678;-46
2021/03/24 10:28:08;;;;;;;68.97;45.00;;;15.60;63.80;;;;;;5060949;28;20051;-46
2021/03/24 10:30:42;;;;;;;64.30;42.78;;;15.60;63.60;;;;;;5069353;28;20037;-48
2021/03/24 10:33:11;;;;;;;63.35;42.03;;;16.20;63.40;;;;;;5067632;28;20595;-47
2021/03/24 10:35:52;;;;;;;63.55;39.78;;;17.10;60.20;;;;;;5067784;28;20024;-48
2021/03/24 10:38:27;;;;;;;67.05;43.58;;;16.90;60.80;;;;;;5064211;28;20390;-47
2021/03/24 10:41:18;;;;;;;61.20;41.45;;;17.20;61.00;;;;;;5068863;28;20043;-47
2021/03/24 10:44:08;;;;;;;64.25;42.70;;;17.60;58.40;;;;;;5051769;28;20075;-46
2021/03/24 10:47:13;;;;;;;68.18;45.50;;;17.80;58.10;;;;;;5066246;28;20024;-45
2021/03/24 10:49:57;;;;;;;62.22;42.03;;;18.40;56.60;;;;;;5067302;28;20028;-46
2021/03/24 10:52:26;;;;;;;59.72;41.08;;;18.80;56.20;;;;;;5066839;28;20025;-46
2021/03/24 10:55:03;;;;;;;71.90;42.17;;;18.70;58.00;;;;;;5065255;28;20112;-46
2021/03/24 10:57:55;;;;;;;61.42;40.35;;;19.20;55.90;;;;;;5065992;28;20818;-45
2021/03/24 11:00:31;;;;;;;63.63;44.38;;;19.30;55.40;;;;;;5067112;28;20183;-46
2021/03/24 11:03:22;;;;;;;56.33;37.35;;;19.20;52.90;;;;;;5066668;28;20036;-46
2021/03/24 11:06:02;;;;;;;56.70;37.63;;;20.40;54.00;;;;;;5066568;28;20574;-46
2021/03/24 11:08:53;;;;;;;50.28;35.10;;;21.00;50.60;;;;;;5066367;28;20110;-47
2021/03/24 11:11:22;;;;;;;58.92;40.35;;;21.50;49.30;;;;;;5068695;28;20039;-46
2021/03/24 11:13:50;;;;;;;51.80;37.47;;;21.50;49.10;;;;;;5068190;28;20083;-48
2021/03/24 11:16:27;;;;;;;50.60;38.22;;;22.50;46.40;;;;;;5066468;28;20054;-47
2021/03/24 11:19:16;;;;;;;55.15;41.15;;;22.20;48.00;;;;;;5068041;28;20031;-46
2021/03/24 11:22:16;;;;;;;48.83;36.58;;;22.00;47.60;;;;;;5067089;28;20122;-47
2021/03/24 11:25:13;;;;;;;50.22;35.55;;;22.80;47.70;;;;;;5066225;28;20094;-47
2021/03/24 11:28:11;;;;;;;47.85;36.63;;;23.50;45.80;;;;;;5063679;28;20098;-46
2021/03/24 11:30:39;;;;;;;45.63;37.38;;;22.90;44.40;;;;;;5058619;28;20040;-47
2021/03/24 11:33:30;;;;;;;42.20;33.13;;;22.10;45.40;;;;;;5066388;28;20397;-46
2021/03/24 11:36:14;;;;;;;45.58;33.70;;;22.10;47.30;;;;;;5065870;28;20461;-47
2021/03/24 11:38:50;;;;;;;52.40;36.13;;;21.90;49.50;;;;;;5066381;28;20032;-47
2021/03/24 11:41:20;;;;;;;42.47;28.92;;;22.90;49.20;;;;;;5065813;28;20024;-47
2021/03/24 11:43:59;;;;;;;43.22;32.55;;;23.50;45.70;;;;;;5065849;28;20490;-47
2021/03/24 11:46:30;;;;;;;48.38;34.65;;;23.30;45.90;;;;;;5067012;28;20029;-47
2021/03/24 11:49:13;;;;;;;43.25;33.25;;;23.30;47.40;;;;;;5064738;28;20021;-50
2021/03/24 11:51:46;;;;;;;43.20;31.23;;;23.50;46.80;;;;;;5065649;28;20074;-45
2021/03/24 11:54:28;;;;;;;39.45;27.67;;;23.80;46.00;;;;;;5064208;28;20024;-45
2021/03/24 11:57:26;;;;;;;41.85;29.65;;;23.80;45.80;;;;;;5062660;28;20563;-45
2021/03/24 12:00:09;;;;;;;41.17;31.42;;;24.30;44.80;;;;;;5041895;28;20047;-47
2021/03/24 12:02:48;;;;;;;43.50;33.83;;;24.10;43.20;;;;;;5066008;28;20029;-45
2021/03/24 12:05:25;;;;;;;42.83;33.30;;;23.60;44.70;;;;;;5069658;28;20162;-47
2021/03/24 12:08:05;;;;;;;48.03;35.83;;;24.30;41.90;;;;;;5069935;28;20482;-46
2021/03/24 12:10:36;;;;;;;51.10;38.30;;;23.80;42.60;;;;;;5068852;28;20494;-46
2021/03/24 12:13:12;;;;;;;47.70;34.67;;;23.90;42.10;;;;;;5069259;28;20052;-46
2021/03/24 12:15:42;;;;;;;48.10;34.50;;;23.60;43.60;;;;;;5066496;28;20033;-47
2021/03/24 12:18:17;;;;;;;44.22;32.10;;;23.60;44.30;;;;;;5069525;28;20016;-46
2021/03/24 12:20:54;;;;;;;49.85;34.95;;;24.10;43.70;;;;;;5069897;28;20047;-45
2021/03/24 12:23:23;;;;;;;49.78;36.85;;;23.40;42.00;;;;;;5068876;28;20119;-46
2021/03/24 12:25:55;;;;;;;53.35;38.15;;;22.40;47.00;;;;;;5068788;28;20032;-46
2021/03/24 12:28:35;;;;;;;58.50;39.30;;;22.60;45.80;;;;;;5069532;28;20033;-46
2021/03/24 12:31:07;;;;;;;53.28;37.25;;;22.20;45.20;;;;;;5068426;28;20571;-46
2021/03/24 12:33:35;;;;;;;60.92;41.25;;;22.20;44.30;;;;;;5068473;28;20152;-46
2021/03/24 12:36:04;;;;;;;49.58;35.05;;;21.80;45.70;;;;;;5068388;28;20050;-46
2021/03/24 12:38:39;;;;;;;63.03;41.40;;;21.70;46.20;;;;;;5066378;28;20013;-45
2021/03/24 12:41:06;;;;;;;62.85;42.53;;;20.60;47.40;;;;;;5069018;28;20161;-46
2021/03/24 12:43:33;;;;;;;62.90;40.28;;;20.00;49.30;;;;;;5066631;28;20064;-47
2021/03/24 12:46:06;;;;;;;60.00;41.15;;;20.30;48.90;;;;;;5069814;28;20138;-48
2021/03/24 12:48:35;;;;;;;59.03;39.92;;;19.90;49.90;;;;;;5069858;28;20035;-46
2021/03/24 12:51:17;;;;;;;59.22;38.75;;;19.80;49.80;;;;;;5069110;28;20025;-45
2021/03/24 12:53:50;;;;;;;61.10;39.97;;;20.10;49.60;;;;;;5068515;28;20134;-46
2021/03/24 12:56:37;;;;;;;60.08;40.30;;;19.90;49.20;;;;;;5069027;28;20504;-47
2021/03/24 12:59:15;;;;;;;56.47;36.63;;;19.80;50.90;;;;;;5069709;28;20549;-46
2021/03/24 13:01:49;;;;;;;62.70;41.05;;;19.80;52.60;;;;;;5069661;28;20115;-46
2021/03/24 13:04:21;;;;;;;59.10;38.90;;;19.80;51.90;;;;;;5068454;28;20016;-46
2021/03/24 13:07:05;;;;;;;55.08;36.33;;;20.20;52.50;;;;;;5069129;28;20056;-48
2021/03/24 13:09:32;;;;;;;62.78;39.13;;;19.90;52.80;;;;;;5068042;28;20021;-46
2021/03/24 13:12:20;;;;;;;55.63;37.00;;;20.20;50.70;;;;;;5068451;28;20493;-47
2021/03/24 13:15:12;;;;;;;61.40;40.55;;;20.40;49.00;;;;;;5065698;28;20089;-46
2021/03/24 13:18:03;;;;;;;59.90;38.38;;;20.00;49.10;;;;;;5067526;28;20036;-45
2021/03/24 13:20:56;;;;;;;58.67;39.00;;;20.00;49.90;;;;;;5070271;28;20607;-50
2021/03/24 13:23:33;;;;;;;66.07;40.85;;;19.50;50.80;;;;;;5069511;28;20024;-46